Time;durP1;ratioP1;P1;durP2;ratioP2;P2;SDS_P1;SDS_P2;PMS_P1;PMS_P2;Temp;Humidity;BMP_temperature;BMP_pressure;BME280_temperature;BME280_humidity;BME280_pressure;Samples;Min_cycle;Max_cycle;Signal;HPM_P1;HPM_P2
2022/07/14 00:01:14;;;;;;;;;;;;;;;22.19;40.23;98246.47;4989657;28;19941;-73
2022/07/14 00:04:08;;;;;;;;;;;;;;;22.04;40.76;98239.16;4987641;28;19933;-73
2022/07/14 00:06:37;;;;;;;;;;;;;;;22.07;40.52;98238.41;4984474;28;19952;-73
2022/07/14 00:09:31;;;;;;;;;;;;;;;21.98;41.14;98238.72;4988960;28;19926;-73
2022/07/14 00:11:59;;;;;;;;;;;;;;;22.00;41.36;98249.38;4979720;28;19941;-73
2022/07/14 00:14:27;;;;;;;;;;;;;;;22.03;41.08;98232.03;4982704;28;20027;-73
2022/07/14 00:16:55;;;;;;;;;;;;;;;21.88;41.75;98240.19;4992936;28;19957;-73
2022/07/14 00:19:24;;;;;;;;;;;;;;;21.82;42.07;98235.38;4993452;28;19937;-74
2022/07/14 00:21:52;;;;;;;;;;;;;;;21.74;42.22;98240.03;4984087;28;19968;-74
2022/07/14 00:24:20;;;;;;;;;;;;;;;21.69;42.70;98241.16;4986784;28;19926;-73
2022/07/14 00:26:48;;;;;;;;;;;;;;;21.66;42.97;98236.38;4990107;28;19980;-73
2022/07/14 00:29:15;;;;;;;;;;;;;;;21.80;42.10;98230.22;4989782;28;20236;-73
2022/07/14 00:31:43;;;;;;;;;;;;;;;21.69;42.04;98224.56;4989613;28;20090;-73
2022/07/14 00:34:12;;;;;;;;;;;;;;;21.72;42.08;98231.31;4986829;28;19934;-73
2022/07/14 00:36:41;;;;;;;;;;;;;;;21.74;42.05;98230.94;4989478;28;19980;-73
2022/07/14 00:42:26;;;;;;;;;;;;;;;21.58;41.96;98229.19;4994962;28;19930;-73
2022/07/14 00:44:54;;;;;;;;;;;;;;;21.62;41.50;98226.44;4993539;28;19926;-73
2022/07/14 00:47:22;;;;;;;;;;;;;;;21.52;42.02;98225.16;4993749;28;19929;-73
2022/07/14 00:49:52;;;;;;;;;;;;;;;21.52;41.55;98218.81;4993941;28;19948;-73
2022/07/14 00:52:21;;;;;;;;;;;;;;;21.48;41.50;98212.47;4992480;28;19980;-73
2022/07/14 00:54:49;;;;;;;;;;;;;;;21.43;41.81;98210.81;4997584;28;19957;-73
2022/07/14 00:57:18;;;;;;;;;;;;;;;21.38;42.21;98211.94;4981814;28;19934;-73
2022/07/14 00:59:46;;;;;;;;;;;;;;;21.31;42.49;98219.38;4987915;28;19932;-73
2022/07/14 01:02:14;;;;;;;;;;;;;;;21.27;42.78;98216.50;4992778;28;19968;-72
2022/07/14 01:04:45;;;;;;;;;;;;;;;21.31;42.06;98214.63;4991963;28;19926;-73
2022/07/14 01:07:13;;;;;;;;;;;;;;;21.40;41.58;98217.88;4990856;28;19929;-73
2022/07/14 01:09:42;;;;;;;;;;;;;;;21.32;41.97;98218.19;4969434;28;20294;-73
2022/07/14 01:12:11;;;;;;;;;;;;;;;21.34;41.43;98218.59;4985805;28;19933;-73
2022/07/14 01:14:39;;;;;;;;;;;;;;;21.31;41.58;98222.91;4973921;28;19961;-73
2022/07/14 01:17:09;;;;;;;;;;;;;;;21.27;41.31;98224.81;4981486;28;19941;-73
2022/07/14 01:19:37;;;;;;;;;;;;;;;21.23;41.54;98218.41;4973429;28;19926;-73
2022/07/14 01:22:06;;;;;;;;;;;;;;;21.04;42.01;98221.31;4973158;28;19996;-73
2022/07/14 01:24:34;;;;;;;;;;;;;;;21.24;41.77;98211.72;4973184;28;19926;-73
2022/07/14 01:27:02;;;;;;;;;;;;;;;21.19;41.72;98215.59;4964331;28;20026;-73
2022/07/14 01:29:30;;;;;;;;;;;;;;;21.14;41.53;98215.94;4970932;28;19933;-73
2022/07/14 01:31:58;;;;;;;;;;;;;;;21.14;41.82;98209.59;4971658;28;19926;-73
2022/07/14 01:34:27;;;;;;;;;;;;;;;21.15;42.02;98205.69;4963819;28;19926;-73
2022/07/14 01:36:57;;;;;;;;;;;;;;;21.13;42.29;98208.03;5000967;28;19933;-73
2022/07/14 01:39:26;;;;;;;;;;;;;;;21.11;42.39;98202.88;4998352;28;19996;-73
2022/07/14 01:41:54;;;;;;;;;;;;;;;21.00;42.90;98203.91;4989233;28;19926;-73
2022/07/14 01:44:22;;;;;;;;;;;;;;;20.96;43.30;98200.28;4984665;28;19926;-73
2022/07/14 01:46:50;;;;;;;;;;;;;;;20.92;43.54;98209.31;4993750;28;19926;-73
2022/07/14 01:49:20;;;;;;;;;;;;;;;21.03;42.76;98197.63;4967654;28;19996;-74
2022/07/14 01:51:48;;;;;;;;;;;;;;;21.07;43.30;98196.50;4998624;28;20357;-74
2022/07/14 01:54:20;;;;;;;;;;;;;;;21.06;43.51;98194.13;4999625;28;19926;-74
2022/07/14 01:56:49;;;;;;;;;;;;;;;20.97;43.22;98188.06;4981790;28;19926;-73
2022/07/14 01:59:17;;;;;;;;;;;;;;;20.88;43.67;98197.44;4981228;28;20326;-73
2022/07/14 02:01:46;;;;;;;;;;;;;;;;;;4976708;28;20070;-73
2022/07/14 02:04:14;;;;;;;;;;;;;;;;;;5000835;28;20036;-73
2022/07/14 02:06:41;;;;;;;;;;;;;;;;;;4970031;28;19965;-73
2022/07/14 02:12:11;;;;;;;;;;;;;;;;;;4979428;28;19927;-73
2022/07/14 02:14:44;;;;;;;;;;;;;;;;;;4988400;28;19965;-73
2022/07/14 02:17:40;;;;;;;;;;;;;;;;;;4984588;28;20068;-73
2022/07/14 02:20:08;;;;;;;;;;;;;;;;;;4970594;28;20349;-73
2022/07/14 02:22:37;;;;;;;;;;;;;;;;;;5001333;28;20028;-74
2022/07/14 02:25:04;;;;;;;;;;;;;;;;;;4976337;28;20002;-73
2022/07/14 02:27:32;;;;;;;;;;;;;;;;;;4999995;28;19930;-73
2022/07/14 02:30:00;;;;;;;;;;;;;;;;;;4979980;28;19981;-73
2022/07/14 02:32:31;;;;;;;;;;;;;;;;;;4994972;28;19927;-73
2022/07/14 02:34:58;;;;;;;;;;;;;;;;;;4993385;28;20381;-73
2022/07/14 02:37:50;;;;;;;;;;;;;;;;;;4971193;28;20325;-73
2022/07/14 02:40:18;;;;;;;;;;;;;;;;;;4971149;28;20310;-73
2022/07/14 02:42:46;;;;;;;;;;;;;;;;;;4998269;28;20304;-73
2022/07/14 02:45:13;;;;;;;;;;;;;;;;;;4978250;28;20029;-72
2022/07/14 02:47:42;;;;;;;;;;;;;;;;;;4969329;28;19998;-73
2022/07/14 02:50:10;;;;;;;;;;;;;;;;;;4986288;28;19926;-72
2022/07/14 02:52:39;;;;;;;;;;;;;;;;;;4995446;28;19978;-73
2022/07/14 02:55:09;;;;;;;;;;;;;;;20.31;nan;98207.53;5002646;28;19937;-73
2022/07/14 02:57:42;;;;;;;;;;;;;;;20.39;nan;98209.22;4983864;28;19926;-73
2022/07/14 03:00:10;;;;;;;;;;;;;;;20.36;nan;98198.94;4983048;28;20284;-73
2022/07/14 03:02:38;;;;;;;;;;;;;;;20.25;nan;98197.19;4970952;28;19926;-73
2022/07/14 03:05:07;;;;;;;;;;;;;;;20.17;nan;98198.22;4976317;28;19932;-73
2022/07/14 03:07:36;;;;;;;;;;;;;;;20.23;nan;98202.25;4977105;28;20400;-73
2022/07/14 03:10:31;;;;;;;;;;;;;;;20.14;nan;98205.28;4991244;28;19932;-73
2022/07/14 03:12:59;;;;;;;;;;;;;;;20.08;nan;98204.78;4993036;28;19925;-73
2022/07/14 03:15:27;;;;;;;;;;;;;;;20.04;nan;98201.16;4991310;28;19925;-73
2022/07/14 03:17:55;;;;;;;;;;;;;;;19.96;nan;98202.19;4972679;28;20325;-73
2022/07/14 03:20:24;;;;;;;;;;;;;;;19.93;nan;98207.66;4978003;28;20614;-73
2022/07/14 03:22:53;;;;;;;;;;;;;;;19.88;nan;98200.47;4992292;28;20397;-73
2022/07/14 03:25:23;;;;;;;;;;;;;;;19.87;nan;98210.69;4999887;28;20080;-73
2022/07/14 03:27:54;;;;;;;;;;;;;;;19.92;nan;98209.59;4990406;28;20315;-72
2022/07/14 03:30:27;;;;;;;;;;;;;;;19.89;nan;98211.13;4973202;28;19936;-73
2022/07/14 03:32:56;;;;;;;;;;;;;;;19.99;nan;98211.69;4982005;28;19925;-73
2022/07/14 03:35:24;;;;;;;;;;;;;;;20.05;nan;98210.22;4971397;28;19981;-73
2022/07/14 03:37:54;;;;;;;;;;;;;;;19.96;nan;98206.91;4977201;28;19925;-73
2022/07/14 03:40:43;;;;;;;;;;;;;;;20.00;nan;98202.25;4994072;28;19937;-73
2022/07/14 03:43:13;;;;;;;;;;;;;;;19.96;nan;98196.66;4988169;28;20289;-73
2022/07/14 03:45:43;;;;;;;;;;;;;;;19.94;nan;98199.00;4989212;28;19948;-73
2022/07/14 03:48:14;;;;;;;;;;;;;;;19.84;nan;98205.09;4996858;28;20230;-73
2022/07/14 03:50:47;;;;;;;;;;;;;;;19.84;nan;98200.41;4969623;28;19926;-74
2022/07/14 03:53:16;;;;;;;;;;;;;;;19.80;nan;98199.53;5004943;28;19938;-76
2022/07/14 03:55:45;;;;;;;;;;;;;;;19.79;nan;98200.69;4990389;28;19930;-77
2022/07/14 03:58:21;;;;;;;;;;;;;;;19.80;nan;98204.25;4983741;28;19970;-77
2022/07/14 04:00:49;;;;;;;;;;;;;;;19.87;nan;98205.19;4988110;28;19932;-76
2022/07/14 04:03:42;;;;;;;;;;;;;;;19.76;nan;98209.72;4987809;28;19948;-76
2022/07/14 04:06:10;;;;;;;;;;;;;;;19.76;nan;98206.94;5003480;28;19926;-77
2022/07/14 04:08:38;;;;;;;;;;;;;;;19.73;nan;98204.13;4990000;28;19926;-76
2022/07/14 04:11:31;;;;;;;;;;;;;;;19.64;nan;98198.81;4997712;28;19932;-76
2022/07/14 04:14:02;;;;;;;;;;;;;;;19.58;nan;98203.78;4990971;28;19926;-76
2022/07/14 04:16:57;;;;;;;;;;;;;;;19.63;nan;98202.75;5003303;28;19948;-78
2022/07/14 04:19:50;;;;;;;;;;;;;;;19.60;nan;98203.44;4995980;28;19932;-78
2022/07/14 04:22:19;;;;;;;;;;;;;;;19.61;nan;98208.63;4977790;28;19926;-78
2022/07/14 04:25:06;;;;;;;;;;;;;;;19.68;nan;98213.47;5004838;28;19933;-78
2022/07/14 04:27:34;;;;;;;;;;;;;;;19.70;nan;98213.91;5007267;28;19970;-78
2022/07/14 04:30:04;;;;;;;;;;;;;;;19.80;nan;98209.75;4976110;28;19971;-78
2022/07/14 04:32:32;;;;;;;;;;;;;;;19.69;nan;98209.56;5008655;28;20367;-78
2022/07/14 04:37:53;;;;;;;;;;;;;;;19.69;nan;98204.03;5007627;28;19926;-78
2022/07/14 04:40:29;;;;;;;;;;;;;;;19.80;nan;98204.25;4972531;28;19926;-79
2022/07/14 04:42:58;;;;;;;;;;;;;;;19.81;nan;98219.63;4993970;28;19974;-78
2022/07/14 04:45:27;;;;;;;;;;;;;;;19.76;nan;98212.47;4989893;28;19934;-81
2022/07/14 04:48:21;;;;;;;;;;;;;;;19.74;nan;98209.25;4995932;28;19936;-76
2022/07/14 04:53:37;;;;;;;;;;;;;;;19.78;nan;98218.41;4995910;28;19931;-79
2022/07/14 04:56:21;;;;;;;;;;;;;;;19.87;nan;98224.50;4987879;28;20360;-76
2022/07/14 04:58:59;;;;;;;;;;;;;;;19.98;nan;98226.66;4990616;28;20008;-73
2022/07/14 05:01:28;;;;;;;;;;;;;;;20.04;nan;98225.97;4994254;28;19938;-74
2022/07/14 05:03:57;;;;;;;;;;;;;;;20.04;nan;98230.69;4974830;28;19947;-80
2022/07/14 05:06:30;;;;;;;;;;;;;;;19.94;nan;98231.28;5007128;28;19926;-78
2022/07/14 05:08:59;;;;;;;;;;;;;;;19.98;nan;98232.97;4971288;28;19945;-77
2022/07/14 05:11:29;;;;;;;;;;;;;;;20.12;nan;98221.38;5005561;28;19926;-80
2022/07/14 05:13:58;;;;;;;;;;;;;;;20.03;nan;98209.81;4984459;28;19926;-83
2022/07/14 05:16:29;;;;;;;;;;;;;;;20.02;nan;98216.47;4984641;28;20357;-82
2022/07/14 05:19:08;;;;;;;;;;;;;;;20.02;nan;98216.47;4985016;28;19936;-79
2022/07/14 05:21:36;;;;;;;;;;;;;;;20.08;nan;98220.50;4985954;28;20300;-75
2022/07/14 05:24:05;;;;;;;;;;;;;;;20.16;nan;98225.00;4971112;28;20020;-77
2022/07/14 05:26:32;;;;;;;;;;;;;;;20.22;nan;98215.25;4973414;28;20256;-77
2022/07/14 05:29:04;;;;;;;;;;;;;;;20.27;nan;98217.72;4984917;28;19926;-79
2022/07/14 05:31:34;;;;;;;;;;;;;;;20.35;nan;98216.69;5006001;28;19926;-78
2022/07/14 05:34:02;;;;;;;;;;;;;;;20.52;nan;98229.22;4987943;28;19926;-75
2022/07/14 05:36:30;;;;;;;;;;;;;;;20.51;nan;98230.38;4970301;28;19975;-78
2022/07/14 05:38:59;;;;;;;;;;;;;;;20.60;nan;98227.34;4978851;28;19933;-80
2022/07/14 05:41:29;;;;;;;;;;;;;;;20.63;nan;98221.09;4981240;28;19937;-77
2022/07/14 05:43:57;;;;;;;;;;;;;;;20.67;nan;98224.72;4982821;28;19930;-77
2022/07/14 05:46:25;;;;;;;;;;;;;;;20.74;nan;98219.31;4980104;28;19934;-77
2022/07/14 05:48:54;;;;;;;;;;;;;;;20.89;nan;98201.00;4970546;28;19937;-78
2022/07/14 05:51:23;;;;;;;;;;;;;;;20.92;nan;98198.25;4983302;28;19926;-76
2022/07/14 05:53:54;;;;;;;;;;;;;;;21.04;nan;98200.03;4974906;28;19934;-80
2022/07/14 05:56:26;;;;;;;;;;;;;;;21.02;nan;98201.56;4984190;28;20422;-81
2022/07/14 05:58:54;;;;;;;;;;;;;;;21.20;nan;98202.63;4957232;28;19959;-82
2022/07/14 06:01:22;;;;;;;;;;;;;;;21.30;nan;98201.97;4985686;28;19932;-81
2022/07/14 06:03:56;;;;;;;;;;;;;;;21.18;nan;98207.69;4975322;28;21080;-81
2022/07/14 06:06:27;;;;;;;;;;;;;;;21.27;nan;98194.41;5001016;28;19970;-78
2022/07/14 06:08:55;;;;;;;;;;;;;;;21.24;nan;98195.13;4999295;28;20361;-77
2022/07/14 06:11:23;;;;;;;;;;;;;;;21.26;nan;98201.09;4983491;28;19926;-74
2022/07/14 06:13:52;;;;;;;;;;;;;;;21.40;nan;98189.44;4972002;28;19926;-76
2022/07/14 06:16:26;;;;;;;;;;;;;;;21.38;nan;98192.59;4999749;28;20033;-75
2022/07/14 06:18:54;;;;;;;;;;;;;;;21.54;nan;98195.16;4986146;28;19926;-74
2022/07/14 06:21:22;;;;;;;;;;;;;;;21.68;nan;98189.00;5002099;28;19961;-74
2022/07/14 06:23:52;;;;;;;;;;;;;;;21.85;nan;98188.41;4994930;28;19940;-74
2022/07/14 06:26:20;;;;;;;;;;;;;;;21.93;nan;98190.06;5002876;28;19930;-73
2022/07/14 06:28:52;;;;;;;;;;;;;;;22.04;nan;98189.38;4975373;28;20205;-72
2022/07/14 06:31:20;;;;;;;;;;;;;;;22.11;nan;98187.50;4972930;28;20352;-72
2022/07/14 06:33:48;;;;;;;;;;;;;;;22.07;nan;98189.41;4985303;28;19946;-73
2022/07/14 06:36:36;;;;;;;;;;;;;;;22.26;nan;98188.41;5002091;28;19932;-72
2022/07/14 06:39:08;;;;;;;;;;;;;;;22.08;nan;98179.13;4985555;28;19973;-72
2022/07/14 06:41:37;;;;;;;;;;;;;;;22.39;nan;98178.66;5000083;28;19937;-72
2022/07/14 06:44:06;;;;;;;;;;;;;;;22.66;nan;98176.47;5004992;28;19932;-73
2022/07/14 06:46:38;;;;;;;;;;;;;;;22.73;nan;98184.03;4987113;28;19932;-72
2022/07/14 06:49:07;;;;;;;;;;;;;;;22.74;nan;98182.84;4984572;28;19956;-72
2022/07/14 06:51:35;;;;;;;;;;;;;;;22.90;nan;98179.81;4968241;28;19926;-73
2022/07/14 06:54:03;;;;;;;;;;;;;;;23.02;nan;98179.53;4981606;28;19926;-73
2022/07/14 06:56:32;;;;;;;;;;;;;;;23.00;nan;98174.34;4969509;28;19985;-75
2022/07/14 06:59:00;;;;;;;;;;;;;;;23.05;nan;98175.97;4969498;28;19926;-73
2022/07/14 07:01:28;;;;;;;;;;;;;;;23.11;nan;98174.41;4969994;28;20372;-74
2022/07/14 07:03:56;;;;;;;;;;;;;;;23.24;nan;98174.88;4986010;28;20008;-74
2022/07/14 07:09:35;;;;;;;;;;;;;;;23.25;nan;98174.47;4963881;28;19926;-75
2022/07/14 07:12:30;;;;;;;;;;;;;;;23.46;nan;98173.00;4967941;28;19931;-77
2022/07/14 07:15:00;;;;;;;;;;;;;;;23.54;nan;98166.25;4970178;28;19930;-74
2022/07/14 07:17:52;;;;;;;;;;;;;;;23.53;nan;98165.47;4966465;28;19950;-75
2022/07/14 07:20:20;;;;;;;;;;;;;;;23.57;nan;98162.72;4966104;28;20351;-77
2022/07/14 07:22:48;;;;;;;;;;;;;;;23.64;nan;98165.53;4973268;28;20482;-77
2022/07/14 07:25:16;;;;;;;;;;;;;;;23.81;nan;98161.25;4969576;28;20060;-74
2022/07/14 07:27:47;;;;;;;;;;;;;;;23.74;nan;98155.66;4974423;28;20030;-77
2022/07/14 07:30:15;;;;;;;;;;;;;;;23.74;nan;98161.22;4970507;28;19926;-73
2022/07/14 07:32:43;;;;;;;;;;;;;;;23.86;nan;98168.38;4971451;28;20356;-74
2022/07/14 07:35:11;;;;;;;;;;;;;;;23.90;nan;98166.41;4968409;28;19933;-74
2022/07/14 07:37:39;;;;;;;;;;;;;;;23.87;nan;98162.44;4964350;28;20325;-75
2022/07/14 07:40:08;;;;;;;;;;;;;;;23.90;nan;98161.63;4968245;28;20355;-74
2022/07/14 07:42:36;;;;;;;;;;;;;;;24.08;nan;98163.66;4969104;28;19926;-76
2022/07/14 07:45:06;;;;;;;;;;;;;;;23.97;nan;98156.13;4959017;28;19938;-75
2022/07/14 07:50:26;;;;;;;;;;;;;;;23.91;nan;98159.66;4974873;28;19938;-75
2022/07/14 07:52:54;;;;;;;;;;;;;;;23.73;nan;98159.63;4967488;28;20307;-75
2022/07/14 07:55:23;;;;;;;;;;;;;;;23.81;nan;98155.69;4972236;28;20273;-75
2022/07/14 07:57:55;;;;;;;;;;;;;;;23.87;nan;98142.22;4970792;28;19942;-73
2022/07/14 08:00:24;;;;;;;;;;;;;;;23.90;nan;98136.66;4978871;28;19933;-73
2022/07/14 08:02:53;;;;;;;;;;;;;;;24.11;nan;98132.34;4977134;28;19925;-74
2022/07/14 08:05:47;;;;;;;;;;;;;;;24.21;nan;98134.31;4983060;28;20085;-74
2022/07/14 08:08:36;;;;;;;;;;;;;;;24.35;nan;98134.34;4974362;28;20256;-73
2022/07/14 08:11:04;;;;;;;;;;;;;;;24.55;nan;98123.59;4993287;28;19926;-74
2022/07/14 08:13:35;;;;;;;;;;;;;;;24.47;nan;98120.06;4990880;28;20388;-75
2022/07/14 08:16:08;;;;;;;;;;;;;;;24.49;nan;98114.09;4986931;28;19926;-75
2022/07/14 08:18:36;;;;;;;;;;;;;;;24.47;nan;98111.72;4992739;28;19938;-75
2022/07/14 08:21:04;;;;;;;;;;;;;;;24.55;nan;98113.31;4977119;28;19926;-74
2022/07/14 08:23:38;;;;;;;;;;;;;;;25.10;nan;98095.31;4993135;28;20302;-75
2022/07/14 08:26:11;;;;;;;;;;;;;;;25.08;nan;98100.47;4991748;28;19956;-75
2022/07/14 08:28:38;;;;;;;;;;;;;;;24.99;nan;98094.53;4992520;28;19930;-75
2022/07/14 08:31:11;;;;;;;;;;;;;;;24.74;nan;98089.06;4995138;28;20355;-75
2022/07/14 08:33:40;;;;;;;;;;;;;;;25.14;nan;98087.75;5013348;28;19936;-75
2022/07/14 08:36:09;;;;;;;;;;;;;;;24.90;nan;98078.28;4993370;28;19929;-75
2022/07/14 08:38:37;;;;;;;;;;;;;;;25.27;nan;98077.75;5012270;28;19925;-76
2022/07/14 08:41:08;;;;;;;;;;;;;;;25.39;nan;98068.16;5012021;28;19925;-75
2022/07/14 08:43:37;;;;;;;;;;;;;;;25.48;nan;98064.94;5003538;28;20348;-74
2022/07/14 08:46:13;;;;;;;;;;;;;;;25.35;nan;98067.38;4999404;28;19932;-75
2022/07/14 08:48:42;;;;;;;;;;;;;;;25.48;nan;98064.94;4991496;28;19932;-75
2022/07/14 08:51:11;;;;;;;;;;;;;;;25.40;nan;98057.81;4993175;28;19926;-76
2022/07/14 08:53:39;;;;;;;;;;;;;;;25.35;nan;98056.25;4991970;28;19930;-76
2022/07/14 08:56:11;;;;;;;;;;;;;;;25.49;nan;98067.31;4992351;28;19930;-75
2022/07/14 08:58:39;;;;;;;;;;;;;;;25.73;nan;98054.44;4993448;28;19929;-76
2022/07/14 09:01:10;;;;;;;;;;;;;;;25.43;nan;98041.13;5003165;28;19925;-75
2022/07/14 09:03:39;;;;;;;;;;;;;;;25.34;nan;98047.13;4991104;28;20272;-75
2022/07/14 09:06:52;;;;;;;;;;;;;;;25.53;nan;98040.25;5006909;28;20007;-77
2022/07/14 09:09:49;;;;;;;;;;;;;;;25.41;nan;98040.75;4986927;28;19997;-75
2022/07/14 09:12:17;;;;;;;;;;;;;;;25.78;nan;98030.94;4978241;28;19936;-75
2022/07/14 09:18:04;;;;;;;;;;;;;;;25.46;nan;98034.75;4988255;28;19942;-75
2022/07/14 09:20:32;;;;;;;;;;;;;;;25.39;nan;98026.44;4975722;28;19926;-75
2022/07/14 09:23:02;;;;;;;;;;;;;;;26.17;nan;98025.06;4978421;28;19925;-75
2022/07/14 09:25:35;;;;;;;;;;;;;;;26.20;nan;98017.88;4973043;28;19976;-75
2022/07/14 09:28:07;;;;;;;;;;;;;;;26.41;nan;98008.50;4986849;28;20008;-75
2022/07/14 09:30:35;;;;;;;;;;;;;;;26.19;nan;98002.38;4965130;28;19976;-76
2022/07/14 09:33:03;;;;;;;;;;;;;;;25.51;nan;98009.25;4972884;28;19936;-75
2022/07/14 09:35:39;;;;;;;;;;;;;;;25.70;nan;98005.16;4967587;28;19933;-75
2022/07/14 09:38:17;;;;;;;;;;;;;;;25.79;nan;98002.72;4969941;28;19926;-76
2022/07/14 09:40:45;;;;;;;;;;;;;;;26.34;nan;97992.66;4963430;28;19926;-75
2022/07/14 09:43:14;;;;;;;;;;;;;;;25.83;nan;97989.59;4967892;28;19926;-75
2022/07/14 09:45:43;;;;;;;;;;;;;;;26.05;nan;97981.81;4967150;28;19930;-75
2022/07/14 09:48:18;;;;;;;;;;;;;;;26.10;nan;97978.59;4972173;28;19965;-75
2022/07/14 09:50:47;;;;;;;;;;;;;;;26.51;nan;97976.97;4972405;28;19934;-75
2022/07/14 09:53:22;;;;;;;;;;;;;;;26.29;nan;97971.63;4973098;28;19936;-75
2022/07/14 09:55:53;;;;;;;;;;;;;;;26.58;nan;97962.94;4953374;28;19926;-74
2022/07/14 09:58:21;;;;;;;;;;;;;;;26.28;nan;97956.13;4968701;28;19928;-75
2022/07/14 10:01:00;;;;;;;;;;;;;;;26.31;nan;97954.47;4968070;28;19941;-75
2022/07/14 10:03:28;;;;;;;;;;;;;;;26.57;nan;97956.59;4972332;28;19926;-75
2022/07/14 10:05:57;;;;;;;;;;;;;;;26.01;nan;97942.09;4989361;28;19941;-74
2022/07/14 10:08:46;;;;;;;;;;;;;;;26.99;nan;97943.31;4980228;28;20016;-75
2022/07/14 10:11:15;;;;;;;;;;;;;;;26.53;nan;97944.72;4992077;28;19999;-75
2022/07/14 10:13:43;;;;;;;;;;;;;;;26.68;nan;97944.53;4991249;28;19925;-75
2022/07/14 10:16:11;;;;;;;;;;;;;;;26.39;nan;97936.50;4979052;28;19984;-75
2022/07/14 10:18:39;;;;;;;;;;;;;;;26.44;nan;97950.00;4990225;28;20088;-75
2022/07/14 10:21:11;;;;;;;;;;;;;;;26.27;nan;97931.47;5005571;28;19930;-75
2022/07/14 10:23:39;;;;;;;;;;;;;;;26.05;nan;97933.72;4988201;28;19926;-75
2022/07/14 10:26:12;;;;;;;;;;;;;;;26.29;nan;97934.63;4990986;28;19926;-75
2022/07/14 10:28:41;;;;;;;;;;;;;;;26.19;nan;97927.19;4990103;28;20392;-76
2022/07/14 10:31:11;;;;;;;;;;;;;;;26.04;nan;97934.88;4981277;28;19936;-75
2022/07/14 10:33:42;;;;;;;;;;;;;;;26.06;nan;97929.72;4986070;28;20640;-75
2022/07/14 10:36:13;;;;;;;;;;;;;;;26.28;nan;97921.91;4978469;28;20303;-74
2022/07/14 10:38:44;;;;;;;;;;;;;;;26.52;nan;97923.63;4978959;28;19933;-74
2022/07/14 10:41:20;;;;;;;;;;;;;;;26.68;nan;97923.03;4977551;28;19933;-74
2022/07/14 10:43:54;;;;;;;;;;;;;;;26.50;nan;97911.34;4986497;28;19925;-74
2022/07/14 10:46:36;;;;;;;;;;;;;;;26.86;nan;97903.28;4988403;28;19948;-74
2022/07/14 10:49:05;;;;;;;;;;;;;;;26.46;nan;97910.56;4985104;28;20410;-74
2022/07/14 10:51:34;;;;;;;;;;;;;;;26.29;nan;97892.84;4991621;28;19925;-74
2022/07/14 10:54:06;;;;;;;;;;;;;;;26.86;nan;97901.28;4990212;28;19926;-76
2022/07/14 10:57:20;;;;;;;;;;;;;;;27.80;nan;97898.59;4988110;28;19948;-77
2022/07/14 10:59:48;;;;;;;;;;;;;;;28.15;nan;97891.56;5005099;28;20329;-78
2022/07/14 11:02:33;;;;;;;;;;;;;;;28.30;nan;97891.28;4984744;28;19952;-78
2022/07/14 11:05:02;;;;;;;;;;;;;;;28.36;nan;97889.59;4989994;28;19933;-78
2022/07/14 11:07:38;;;;;;;;;;;;;;;28.54;nan;97886.41;5003335;28;19971;-78
2022/07/14 11:10:24;;;;;;;;;;;;;;;28.77;nan;97886.31;4996997;28;19926;-78
2022/07/14 11:13:09;;;;;;;;;;;;;;;28.94;nan;97875.97;4987502;28;19926;-79
2022/07/14 11:15:38;;;;;;;;;;;;;;;29.10;nan;97873.19;4975858;28;19930;-78
2022/07/14 11:18:34;;;;;;;;;;;;;;;29.17;nan;97861.84;4984961;28;20299;-79
2022/07/14 11:21:13;;;;;;;;;;;;;;;29.18;nan;97868.22;4955691;28;19926;-80
2022/07/14 11:23:52;;;;;;;;;;;;;;;29.30;nan;97867.53;5003832;28;19926;-80
2022/07/14 11:26:34;;;;;;;;;;;;;;;29.14;nan;97856.34;4990591;28;19926;-80
2022/07/14 11:29:04;;;;;;;;;;;;;;;29.19;nan;97851.00;4988648;28;20352;-80
2022/07/14 11:31:43;;;;;;;;;;;;;;;29.36;nan;97853.78;4990965;28;19926;-80
2022/07/14 11:37:05;;;;;;;;;;;;;;;29.57;nan;97855.28;4984093;28;19926;-81
2022/07/14 11:39:53;;;;;;;;;;;;;;;29.54;nan;97851.34;4989231;28;19933;-80
2022/07/14 11:42:22;;;;;;;;;;;;;;;29.58;nan;97840.84;4991614;28;19926;-80
2022/07/14 11:44:55;;;;;;;;;;;;;;;29.64;nan;97841.09;5004213;28;19936;-81
2022/07/14 11:47:29;;;;;;;;;;;;;;;29.64;nan;97839.09;4984103;28;20317;-81
2022/07/14 11:49:59;;;;;;;;;;;;;;;29.65;nan;97831.47;4987704;28;19926;-81
2022/07/14 11:52:37;;;;;;;;;;;;;;;29.74;nan;97817.63;4985692;28;19932;-80
2022/07/14 11:55:06;;;;;;;;;;;;;;;29.71;nan;97819.28;4987555;28;20307;-79
2022/07/14 11:57:35;;;;;;;;;;;;;;;29.62;nan;97823.97;4989845;28;19925;-75
2022/07/14 12:00:08;;;;;;;;;;;;;;;29.59;nan;97814.41;4989295;28;19925;-83
2022/07/14 12:02:39;;;;;;;;;;;;;;;29.56;nan;97820.09;4990114;28;19925;-75
2022/07/14 12:05:08;;;;;;;;;;;;;;;29.55;nan;97813.72;4991446;28;19948;-75
2022/07/14 12:07:46;;;;;;;;;;;;;;;29.66;nan;97814.22;5013438;28;20125;-80
2022/07/14 12:10:16;;;;;;;;;;;;;;;29.86;nan;97804.91;5014151;28;20412;-80
2022/07/14 12:12:47;;;;;;;;;;;;;;;29.82;nan;97804.19;5022404;28;19933;-81
2022/07/14 12:15:23;;;;;;;;;;;;;;;29.74;nan;97793.22;4999353;28;19937;-80
2022/07/14 12:17:53;;;;;;;;;;;;;;;29.73;nan;97802.84;5008636;28;19959;-80
2022/07/14 12:20:21;;;;;;;;;;;;;;;29.73;nan;97794.44;5023455;28;19940;-81
2022/07/14 12:22:51;;;;;;;;;;;;;;;29.83;nan;97783.38;5007676;28;19945;-81
2022/07/14 12:25:24;;;;;;;;;;;;;;;29.87;nan;97781.25;5006648;28;20310;-81
2022/07/14 12:27:53;;;;;;;;;;;;;;;30.03;nan;97784.00;5008801;28;20353;-80
2022/07/14 12:30:22;;;;;;;;;;;;;;;30.24;nan;97774.19;5004089;28;19929;-80
2022/07/14 12:32:54;;;;;;;;;;;;;;;30.17;nan;97771.63;5010675;28;19926;-80
2022/07/14 12:35:22;;;;;;;;;;;;;;;30.18;nan;97765.56;5008992;28;19952;-80
2022/07/14 12:37:51;;;;;;;;;;;;;;;30.20;nan;97785.53;5012285;28;19932;-80
2022/07/14 12:40:39;;;;;;;;;;;;;;;30.37;nan;97766.59;5009940;28;19934;-81
2022/07/14 12:43:09;;;;;;;;;;;;;;;30.37;nan;97779.84;5012123;28;20305;-80
2022/07/14 12:45:56;;;;;;;;;;;;;;;30.28;nan;97772.06;5005678;28;19933;-80
2022/07/14 12:48:25;;;;;;;;;;;;;;;30.29;nan;97770.84;5010746;28;19926;-81
2022/07/14 12:50:53;;;;;;;;;;;;;;;30.21;nan;97766.69;5009586;28;20029;-81
2022/07/14 12:53:22;;;;;;;;;;;;;;;30.23;nan;97770.63;5011732;28;19944;-80
2022/07/14 12:55:59;;;;;;;;;;;;;;;30.12;nan;97772.94;5011948;28;19955;-81
2022/07/14 12:58:29;;;;;;;;;;;;;;;30.08;nan;97775.03;5012506;28;19935;-81
2022/07/14 13:00:57;;;;;;;;;;;;;;;30.26;nan;97764.13;5004647;28;19932;-79
2022/07/14 13:03:26;;;;;;;;;;;;;;;30.43;nan;97764.81;5011965;28;20035;-80
2022/07/14 13:05:55;;;;;;;;;;;;;;;30.53;nan;97772.09;5028300;28;19945;-80
2022/07/14 13:08:38;;;;;;;;;;;;;;;30.38;nan;97768.16;5024753;28;20001;-80
2022/07/14 13:11:11;;;;;;;;;;;;;;;30.40;nan;97776.13;5014404;28;20259;-81
2022/07/14 13:13:40;;;;;;;;;;;;;;;30.25;nan;97764.56;5025894;28;19932;-80
2022/07/14 13:16:22;;;;;;;;;;;;;;;30.10;nan;97757.81;5007571;28;20367;-80
2022/07/14 13:19:15;;;;;;;;;;;;;;;30.08;nan;97766.63;5024055;28;19925;-79
2022/07/14 13:21:51;;;;;;;;;;;;;;;30.09;nan;97767.41;5011472;28;19933;-80
2022/07/14 13:24:19;;;;;;;;;;;;;;;30.07;nan;97776.28;5010654;28;19937;-78
2022/07/14 13:26:58;;;;;;;;;;;;;;;30.04;nan;97771.53;5008187;28;19926;-80
2022/07/14 13:29:26;;;;;;;;;;;;;;;30.19;nan;97783.16;4994032;28;20387;-81
2022/07/14 13:31:54;;;;;;;;;;;;;;;30.13;nan;97768.91;5007358;28;19926;-80
2022/07/14 13:34:23;;;;;;;;;;;;;;;30.16;nan;97775.66;5012626;28;19940;-80
2022/07/14 13:39:45;;;;;;;;;;;;;;;30.32;nan;97764.34;5009895;28;19926;-80
2022/07/14 13:42:13;;;;;;;;;;;;;;;30.48;nan;97769.06;5006856;28;20001;-80
2022/07/14 13:44:41;;;;;;;;;;;;;;;30.47;nan;97765.50;5012101;28;19971;-80
2022/07/14 13:47:34;;;;;;;;;;;;;;;30.44;nan;97765.59;5006391;28;20391;-80
2022/07/14 13:52:50;;;;;;;;;;;;;;;30.42;nan;97763.25;5010664;28;19926;-81
2022/07/14 13:55:18;;;;;;;;;;;;;;;30.45;nan;97769.94;5026598;28;19974;-80
2022/07/14 13:57:46;;;;;;;;;;;;;;;30.27;nan;97751.69;5010827;28;19941;-80
2022/07/14 14:00:14;;;;;;;;;;;;;;;30.07;nan;97748.25;5006550;28;20291;-80
2022/07/14 14:05:56;;;;;;;;;;;;;;;29.98;nan;97753.72;5011233;28;20234;-80
2022/07/14 14:08:28;;;;;;;;;;;;;;;29.98;nan;97762.13;5019966;28;19973;-80
2022/07/14 14:10:56;;;;;;;;;;;;;;;29.97;nan;97758.53;5006681;28;20029;-80
2022/07/14 14:13:27;;;;;;;;;;;;;;;29.91;nan;97759.53;4991472;28;19932;-80